METAR Data
IDs: Format: Raw Decoded Include TAF

Data at: 2148 UTC 02 Aug 2021

LTAN 022050Z 32006KT CAVOK 23/06 Q1015 NOSIG